createdAt,value
2022-11-30T00:00:17.991Z,26.40
2022-11-30T00:02:45.196Z,25.43
2022-11-30T00:05:13.442Z,25.10
2022-11-30T00:07:40.320Z,25.37
2022-11-30T00:10:08.906Z,27.13
2022-11-30T00:12:37.179Z,26.67
2022-11-30T00:15:05.188Z,26.37
2022-11-30T00:17:32.053Z,26.47
2022-11-30T00:19:59.356Z,25.53
2022-11-30T00:22:26.194Z,26.80
2022-11-30T00:24:53.539Z,26.47
2022-11-30T00:27:20.674Z,25.90
2022-11-30T00:29:49.439Z,27.13
2022-11-30T00:32:16.330Z,25.93
2022-11-30T00:34:43.286Z,25.90
2022-11-30T00:37:10.224Z,25.77
2022-11-30T00:39:39.622Z,26.43
2022-11-30T00:42:06.664Z,26.90
2022-11-30T00:44:34.014Z,27.03
2022-11-30T00:47:02.236Z,25.60
2022-11-30T00:49:29.451Z,28.77
2022-11-30T00:51:56.404Z,31.27
2022-11-30T00:54:23.318Z,27.17
2022-11-30T00:56:50.161Z,26.53
2022-11-30T00:59:17.342Z,26.47
2022-11-30T01:01:44.290Z,27.37
2022-11-30T01:04:12.967Z,25.80
2022-11-30T01:06:40.220Z,27.70
2022-11-30T01:09:07.805Z,27.50
2022-11-30T01:11:34.728Z,26.47
2022-11-30T01:14:02.660Z,27.60
2022-11-30T01:16:31.771Z,27.00
2022-11-30T01:18:59.015Z,26.93
2022-11-30T01:21:28.592Z,25.63
2022-11-30T01:23:56.417Z,26.80
2022-11-30T01:26:23.850Z,27.27
2022-11-30T01:28:52.286Z,26.43
2022-11-30T01:31:20.207Z,26.17
2022-11-30T01:33:50.252Z,25.70
2022-11-30T01:36:19.946Z,26.47
2022-11-30T01:38:49.975Z,26.33
2022-11-30T01:41:20.279Z,26.70
2022-11-30T01:43:49.885Z,24.80
2022-11-30T01:46:30.862Z,24.97
2022-11-30T01:49:03.453Z,27.30
2022-11-30T01:51:34.625Z,26.37
2022-11-30T01:54:03.915Z,26.47
2022-11-30T01:56:31.201Z,25.30
2022-11-30T01:58:58.271Z,26.50
2022-11-30T02:01:26.067Z,24.83
2022-11-30T02:03:59.125Z,24.80
2022-11-30T02:06:26.644Z,26.80
2022-11-30T02:08:54.928Z,25.90
2022-11-30T02:11:24.576Z,26.03
2022-11-30T02:14:04.488Z,26.80
2022-11-30T02:16:41.775Z,26.13
2022-11-30T02:19:35.870Z,26.30
2022-11-30T02:22:10.275Z,26.03
2022-11-30T02:24:51.640Z,26.87
2022-11-30T02:27:43.909Z,27.10
2022-11-30T02:30:15.408Z,26.47
2022-11-30T02:32:48.454Z,27.40
2022-11-30T02:35:20.658Z,27.50
2022-11-30T02:37:48.882Z,27.67
2022-11-30T02:40:19.387Z,27.93
2022-11-30T02:42:47.005Z,26.80
2022-11-30T02:45:16.000Z,27.67
2022-11-30T02:47:48.385Z,28.50
2022-11-30T02:50:19.309Z,27.57
2022-11-30T02:52:46.526Z,28.63
2022-11-30T02:55:17.399Z,28.87
2022-11-30T02:57:44.337Z,29.77
2022-11-30T03:00:14.401Z,29.07
2022-11-30T03:02:43.116Z,29.43
2022-11-30T03:05:10.219Z,29.53
2022-11-30T03:07:38.942Z,29.97
2022-11-30T03:10:07.453Z,29.60
2022-11-30T03:12:34.456Z,30.80
2022-11-30T03:15:01.918Z,30.70
2022-11-30T03:17:28.859Z,30.67
2022-11-30T03:19:57.572Z,31.53
2022-11-30T03:22:24.445Z,30.03
2022-11-30T03:24:51.723Z,30.37
2022-11-30T03:27:18.601Z,30.70
2022-11-30T03:29:45.796Z,30.03
2022-11-30T03:32:12.655Z,31.40
2022-11-30T03:34:39.589Z,29.70
2022-11-30T03:37:07.876Z,30.90
2022-11-30T03:39:34.901Z,29.73
2022-11-30T03:42:02.170Z,31.73
2022-11-30T03:44:29.919Z,30.33
2022-11-30T03:46:57.256Z,31.43
2022-11-30T03:49:24.210Z,31.70
2022-11-30T03:51:51.551Z,31.20
2022-11-30T03:54:19.853Z,32.50
2022-11-30T03:56:47.189Z,31.77
2022-11-30T03:59:14.062Z,33.10
2022-11-30T04:01:41.523Z,32.90
2022-11-30T04:04:08.521Z,31.87
2022-11-30T04:06:35.510Z,33.67
2022-11-30T04:09:02.864Z,32.40
2022-11-30T04:11:33.490Z,34.00
2022-11-30T04:14:00.338Z,33.37
2022-11-30T04:16:27.734Z,32.47
2022-11-30T04:18:54.638Z,34.20
2022-11-30T04:21:22.019Z,34.23
2022-11-30T04:23:49.958Z,34.37
2022-11-30T04:26:17.929Z,33.50
2022-11-30T04:28:46.324Z,34.33
2022-11-30T04:31:14.918Z,33.90
2022-11-30T04:33:41.741Z,34.27
2022-11-30T04:36:18.195Z,33.20
2022-11-30T04:38:45.344Z,34.40
2022-11-30T04:41:12.838Z,33.53
2022-11-30T04:43:39.723Z,33.93
2022-11-30T04:46:08.396Z,33.33
2022-11-30T04:48:35.527Z,32.57
2022-11-30T04:51:03.111Z,34.77
2022-11-30T04:53:30.322Z,34.03
2022-11-30T04:55:57.241Z,32.63
2022-11-30T04:58:27.576Z,33.10
2022-11-30T05:00:55.795Z,33.27
2022-11-30T05:03:24.051Z,32.53
2022-11-30T05:05:50.977Z,33.60
2022-11-30T05:08:18.444Z,31.77
2022-11-30T05:10:50.158Z,33.53
2022-11-30T05:13:20.301Z,32.67
2022-11-30T05:15:47.658Z,32.10
2022-11-30T05:18:16.239Z,33.40
2022-11-30T05:20:48.455Z,35.10
2022-11-30T05:23:16.864Z,35.43
2022-11-30T05:25:43.963Z,33.73
2022-11-30T05:28:10.888Z,35.83
2022-11-30T05:30:39.664Z,32.87
2022-11-30T05:33:06.959Z,35.33
2022-11-30T05:35:35.441Z,34.73
2022-11-30T05:38:03.887Z,36.27
2022-11-30T05:40:32.600Z,36.17
2022-11-30T05:43:01.126Z,36.27
2022-11-30T05:45:28.832Z,36.97
2022-11-30T05:47:56.191Z,37.90
2022-11-30T05:50:23.137Z,36.87
2022-11-30T05:52:52.313Z,37.07
2022-11-30T05:55:20.520Z,35.30
2022-11-30T05:57:47.806Z,36.17
2022-11-30T06:00:16.036Z,36.60
2022-11-30T06:02:45.786Z,38.33
2022-11-30T06:05:14.037Z,38.40
2022-11-30T06:07:41.255Z,38.03
2022-11-30T06:10:09.402Z,38.47
2022-11-30T06:12:37.633Z,38.40
2022-11-30T06:15:06.422Z,37.93
2022-11-30T06:17:33.411Z,38.93
2022-11-30T06:20:00.598Z,38.13
2022-11-30T06:22:27.542Z,37.57
2022-11-30T06:24:54.754Z,39.47
2022-11-30T06:27:21.673Z,39.57
2022-11-30T06:29:50.022Z,39.73
2022-11-30T06:32:16.992Z,39.43
2022-11-30T06:34:44.298Z,39.23
2022-11-30T06:37:11.367Z,39.17
2022-11-30T06:40:04.803Z,39.00
2022-11-30T06:42:25.434Z,38.03
2022-11-30T06:44:53.783Z,39.70
2022-11-30T06:47:20.676Z,37.90
2022-11-30T06:49:48.049Z,36.87
2022-11-30T06:52:14.976Z,38.37
2022-11-30T06:54:41.903Z,38.90
2022-11-30T06:57:08.934Z,38.43
2022-11-30T06:59:42.689Z,39.27
2022-11-30T07:02:17.441Z,39.33
2022-11-30T07:04:46.125Z,39.40
2022-11-30T07:07:13.524Z,40.10
2022-11-30T07:09:41.110Z,39.67
2022-11-30T07:12:08.561Z,39.43
2022-11-30T07:14:35.820Z,39.23
2022-11-30T07:17:05.368Z,39.23
2022-11-30T07:19:37.015Z,39.07
2022-11-30T07:22:03.963Z,39.73
2022-11-30T07:24:49.960Z,37.63
2022-11-30T07:27:17.063Z,38.97
2022-11-30T07:29:44.447Z,39.20
2022-11-30T07:32:11.416Z,39.67
2022-11-30T07:34:40.164Z,39.23
2022-11-30T07:37:07.019Z,40.37
2022-11-30T07:39:34.223Z,40.53
2022-11-30T07:42:01.886Z,39.83
2022-11-30T07:44:28.751Z,39.37
2022-11-30T07:46:55.634Z,40.87
2022-11-30T07:49:22.935Z,41.63
2022-11-30T07:51:51.123Z,40.67
2022-11-30T07:54:18.489Z,40.67
2022-11-30T07:56:45.411Z,40.77
2022-11-30T07:59:12.579Z,40.23
2022-11-30T08:01:39.656Z,41.47
2022-11-30T08:04:06.781Z,41.70
2022-11-30T08:06:33.931Z,40.87
2022-11-30T08:09:04.836Z,41.13
2022-11-30T08:11:33.873Z,40.43
2022-11-30T08:14:01.637Z,39.90
2022-11-30T08:16:30.192Z,41.47
2022-11-30T08:18:58.660Z,40.60
2022-11-30T08:21:25.825Z,40.07
2022-11-30T08:23:56.336Z,40.63
2022-11-30T08:26:27.571Z,39.80
2022-11-30T08:28:55.920Z,40.30
2022-11-30T08:31:25.926Z,40.40
2022-11-30T08:33:56.598Z,39.97
2022-11-30T08:36:25.006Z,39.80
2022-11-30T08:38:51.964Z,41.07
2022-11-30T08:41:21.427Z,43.37
2022-11-30T08:43:50.940Z,41.90
2022-11-30T08:46:50.833Z,42.80
2022-11-30T08:49:21.086Z,46.13
2022-11-30T08:54:37.407Z,43.53
2022-11-30T08:57:04.285Z,41.90
2022-11-30T08:59:32.620Z,40.83
2022-11-30T09:01:59.637Z,38.93
2022-11-30T09:04:27.123Z,40.20
2022-11-30T09:06:58.622Z,39.97
2022-11-30T09:09:26.119Z,40.67
2022-11-30T09:11:53.040Z,39.30
2022-11-30T09:14:20.038Z,42.17
2022-11-30T09:16:48.405Z,41.93
2022-11-30T09:19:15.324Z,42.10
2022-11-30T09:21:51.154Z,44.20
2022-11-30T09:24:19.119Z,44.53
2022-11-30T09:26:46.045Z,44.63
2022-11-30T09:29:13.506Z,44.60
2022-11-30T09:31:40.419Z,44.07
2022-11-30T09:34:11.427Z,42.13
2022-11-30T09:36:38.450Z,40.43
2022-11-30T09:39:06.846Z,40.97
2022-11-30T09:41:56.673Z,41.30
2022-11-30T09:44:31.736Z,41.23
2022-11-30T09:47:09.601Z,41.97
2022-11-30T09:49:41.091Z,40.50
2022-11-30T09:52:14.029Z,42.10
2022-11-30T09:54:43.756Z,42.13
2022-11-30T09:57:23.644Z,42.77
2022-11-30T09:59:55.500Z,41.70
2022-11-30T10:02:28.474Z,42.70
2022-11-30T10:04:58.160Z,42.10
2022-11-30T10:07:43.426Z,42.60
2022-11-30T10:10:32.391Z,41.83
2022-11-30T10:13:15.516Z,41.47
2022-11-30T10:15:55.099Z,41.53
2022-11-30T10:18:28.474Z,41.03
2022-11-30T10:21:01.310Z,42.27
2022-11-30T10:23:55.347Z,40.90
2022-11-30T10:26:29.819Z,38.27
2022-11-30T10:29:02.694Z,41.60
2022-11-30T10:31:36.450Z,40.47
2022-11-30T10:34:15.996Z,43.40
2022-11-30T10:36:47.697Z,39.97
2022-11-30T10:39:20.640Z,39.97
2022-11-30T10:41:50.996Z,41.03
2022-11-30T10:44:22.944Z,40.10
2022-11-30T10:46:55.547Z,41.97
2022-11-30T10:49:25.450Z,42.67
2022-11-30T10:51:58.207Z,41.10
2022-11-30T10:54:25.493Z,44.83
2022-11-30T10:56:52.495Z,44.33
2022-11-30T10:59:24.141Z,42.90
2022-11-30T11:01:53.322Z,41.53
2022-11-30T11:04:25.352Z,39.30
2022-11-30T11:06:56.303Z,38.43
2022-11-30T11:09:34.141Z,40.47
2022-11-30T11:12:02.775Z,40.07
2022-11-30T11:14:36.282Z,42.43
2022-11-30T11:17:06.638Z,43.70
2022-11-30T11:19:36.839Z,45.30
2022-11-30T11:22:07.410Z,43.17
2022-11-30T11:24:35.742Z,43.63
2022-11-30T11:27:02.839Z,45.97
2022-11-30T11:29:33.017Z,42.27
2022-11-30T11:32:26.758Z,40.83
2022-11-30T11:34:54.038Z,39.60
2022-11-30T11:37:26.397Z,38.70
2022-11-30T11:40:13.265Z,38.90
2022-11-30T11:42:44.739Z,44.27
2022-11-30T11:45:17.614Z,43.50
2022-11-30T11:47:45.828Z,44.00
2022-11-30T11:50:58.285Z,44.07
2022-11-30T11:53:24.954Z,44.87
2022-11-30T11:55:56.485Z,43.23
2022-11-30T11:58:38.384Z,44.40
2022-11-30T12:01:38.770Z,47.43
2022-11-30T12:04:12.433Z,48.40
2022-11-30T12:06:41.266Z,47.57
2022-11-30T12:09:15.070Z,43.87
2022-11-30T12:11:46.773Z,39.77
2022-11-30T12:14:16.954Z,42.03
2022-11-30T12:17:15.751Z,40.47
2022-11-30T12:19:54.559Z,38.27
2022-11-30T12:22:45.669Z,39.70
2022-11-30T12:25:24.287Z,39.13
2022-11-30T12:27:59.350Z,38.83
2022-11-30T12:30:32.368Z,41.83
2022-11-30T12:33:12.031Z,40.47
2022-11-30T12:35:47.094Z,42.10
2022-11-30T12:38:25.852Z,42.97
2022-11-30T12:41:01.298Z,43.80
2022-11-30T12:43:42.259Z,43.33
2022-11-30T12:46:19.491Z,43.63
2022-11-30T12:48:58.550Z,44.60
2022-11-30T12:51:32.094Z,44.53
2022-11-30T12:54:08.009Z,43.97
2022-11-30T12:56:46.241Z,46.20
2022-11-30T12:59:28.373Z,44.00
2022-11-30T13:02:14.284Z,44.97
2022-11-30T13:04:45.264Z,47.03
2022-11-30T13:07:27.786Z,45.97
2022-11-30T13:09:59.166Z,46.60
2022-11-30T13:12:35.962Z,45.83
2022-11-30T13:15:09.719Z,48.53
2022-11-30T13:17:39.700Z,49.07
2022-11-30T13:20:17.262Z,49.73
2022-11-30T13:22:50.625Z,49.67
2022-11-30T13:25:59.391Z,49.70
2022-11-30T13:28:24.755Z,50.07
2022-11-30T13:30:58.518Z,50.37
2022-11-30T13:33:39.020Z,48.73
2022-11-30T13:36:21.184Z,51.37
2022-11-30T13:39:08.012Z,52.30
2022-11-30T13:41:35.501Z,52.17
2022-11-30T13:44:04.511Z,52.43
2022-11-30T13:46:31.564Z,51.53
2022-11-30T13:49:19.959Z,52.47
2022-11-30T13:52:01.486Z,50.40
2022-11-30T13:54:39.856Z,51.40
2022-11-30T13:57:18.163Z,51.80
2022-11-30T13:59:49.069Z,52.47
2022-11-30T14:02:54.037Z,49.63
2022-11-30T14:05:25.006Z,49.97
2022-11-30T14:08:36.971Z,52.07
2022-11-30T14:11:35.823Z,52.77
2022-11-30T14:14:45.452Z,49.60
2022-11-30T14:17:23.932Z,50.83
2022-11-30T14:19:54.388Z,51.83
2022-11-30T14:22:21.823Z,53.97
2022-11-30T14:24:49.945Z,52.37
2022-11-30T14:27:20.047Z,50.67
2022-11-30T14:29:53.694Z,49.27
2022-11-30T14:32:35.270Z,50.50
2022-11-30T14:35:11.876Z,49.57
2022-11-30T14:37:44.020Z,50.63
2022-11-30T14:40:19.383Z,53.33
2022-11-30T14:42:51.929Z,52.20
2022-11-30T14:45:21.607Z,51.00
2022-11-30T14:47:53.931Z,51.80
2022-11-30T14:50:24.542Z,51.57
2022-11-30T14:53:11.160Z,50.57
2022-11-30T14:55:44.039Z,51.10
2022-11-30T14:58:20.515Z,55.90
2022-11-30T15:00:48.232Z,53.17
2022-11-30T15:03:25.626Z,52.20
2022-11-30T15:05:54.544Z,50.87
2022-11-30T15:08:22.497Z,49.63
2022-11-30T15:10:50.310Z,50.37
2022-11-30T15:13:20.236Z,50.87
2022-11-30T15:15:52.151Z,55.93
2022-11-30T15:18:22.295Z,49.53
2022-11-30T15:20:53.012Z,49.33
2022-11-30T15:23:20.528Z,52.07
2022-11-30T15:25:52.818Z,49.23
2022-11-30T15:28:22.744Z,49.93
2022-11-30T15:30:54.279Z,50.17
2022-11-30T15:33:24.560Z,48.93
2022-11-30T15:36:18.797Z,50.43
2022-11-30T15:38:47.565Z,49.33
2022-11-30T15:41:19.036Z,49.23
2022-11-30T15:43:50.891Z,48.97
2022-11-30T15:46:37.744Z,50.37
2022-11-30T15:49:18.005Z,48.17
2022-11-30T15:51:46.994Z,49.83
2022-11-30T15:54:15.318Z,50.10
2022-11-30T15:56:54.499Z,50.03
2022-11-30T15:59:29.482Z,48.43
2022-11-30T16:02:14.567Z,46.37
2022-11-30T16:05:10.776Z,47.63
2022-11-30T16:07:52.391Z,47.40
2022-11-30T16:10:21.952Z,46.27
2022-11-30T16:12:51.212Z,45.27
2022-11-30T16:15:20.521Z,45.13
2022-11-30T16:17:47.937Z,48.13
2022-11-30T16:20:17.342Z,47.83
2022-11-30T16:22:45.924Z,49.40
2022-11-30T16:25:15.187Z,47.03
2022-11-30T16:27:42.736Z,49.10
2022-11-30T16:30:14.163Z,47.90
2022-11-30T16:32:41.276Z,48.50
2022-11-30T16:35:21.731Z,55.97
2022-11-30T16:37:48.702Z,54.33
2022-11-30T16:40:18.181Z,49.30
2022-11-30T16:42:45.148Z,49.60
2022-11-30T16:45:16.811Z,49.80
2022-11-30T16:47:44.392Z,50.47
2022-11-30T16:50:12.569Z,49.37
2022-11-30T16:52:43.361Z,50.23
2022-11-30T16:55:15.568Z,48.77
2022-11-30T16:57:42.837Z,48.30
2022-11-30T17:00:11.895Z,47.80
2022-11-30T17:02:42.945Z,47.07
2022-11-30T17:05:12.390Z,48.60
2022-11-30T17:07:40.806Z,49.23
2022-11-30T17:10:08.964Z,49.63
2022-11-30T17:12:36.064Z,48.17
2022-11-30T17:15:03.776Z,47.20
2022-11-30T17:17:30.844Z,49.97
2022-11-30T17:19:58.011Z,51.30
2022-11-30T17:22:24.899Z,50.77
2022-11-30T17:24:53.269Z,50.43
2022-11-30T17:27:20.245Z,47.50
2022-11-30T17:29:47.486Z,48.80
2022-11-30T17:32:14.448Z,49.10
2022-11-30T17:34:43.795Z,48.03
2022-11-30T17:37:13.623Z,54.53
2022-11-30T17:39:43.094Z,52.03
2022-11-30T17:42:11.432Z,47.47
2022-11-30T17:44:38.672Z,47.47
2022-11-30T17:47:05.587Z,46.73
2022-11-30T17:49:32.784Z,47.20
2022-11-30T17:51:59.651Z,48.03
2022-11-30T17:54:26.798Z,47.00
2022-11-30T17:56:55.921Z,46.50
2022-11-30T17:59:24.477Z,45.57
2022-11-30T18:01:51.810Z,46.73
2022-11-30T18:04:20.063Z,45.70
2022-11-30T18:06:46.952Z,46.77
2022-11-30T18:09:14.108Z,46.30
2022-11-30T18:11:40.971Z,45.60
2022-11-30T18:14:08.494Z,46.33
2022-11-30T18:16:37.290Z,48.60
2022-11-30T18:19:12.087Z,49.00
2022-11-30T18:21:41.906Z,48.93
2022-11-30T18:24:10.280Z,60.63
2022-11-30T18:26:38.858Z,57.70
2022-11-30T18:29:06.558Z,53.07
2022-11-30T18:31:33.923Z,55.50
2022-11-30T18:34:06.057Z,54.53
2022-11-30T18:36:33.071Z,53.13
2022-11-30T18:39:03.157Z,56.20
2022-11-30T18:41:31.764Z,52.43
2022-11-30T18:43:59.109Z,49.40
2022-11-30T18:46:26.964Z,54.23
2022-11-30T18:48:54.845Z,54.33
2022-11-30T18:51:24.559Z,60.13
2022-11-30T18:53:57.928Z,71.23
2022-11-30T18:56:28.575Z,55.23
2022-11-30T18:58:56.718Z,50.00
2022-11-30T19:01:24.317Z,48.57
2022-11-30T19:03:52.695Z,45.30
2022-11-30T19:06:20.745Z,48.10
2022-11-30T19:08:49.329Z,49.33
2022-11-30T19:11:17.428Z,46.00
2022-11-30T19:13:45.635Z,45.57
2022-11-30T19:16:15.247Z,43.90
2022-11-30T19:18:44.822Z,43.70
2022-11-30T19:21:13.387Z,47.60
2022-11-30T19:23:42.877Z,47.83
2022-11-30T19:26:11.668Z,43.63
2022-11-30T19:28:39.849Z,43.20
2022-11-30T19:31:08.719Z,44.50
2022-11-30T19:33:36.573Z,42.77
2022-11-30T19:36:06.079Z,42.07
2022-11-30T19:38:33.463Z,44.43
2022-11-30T19:41:05.458Z,44.10
2022-11-30T19:43:35.116Z,42.23
2022-11-30T19:46:06.821Z,41.83
2022-11-30T19:48:34.301Z,41.97
2022-11-30T19:51:04.820Z,41.17
2022-11-30T19:53:31.751Z,42.83
2022-11-30T19:55:58.767Z,41.20
2022-11-30T19:58:26.769Z,42.40
2022-11-30T20:00:55.144Z,41.87
2022-11-30T20:03:22.121Z,42.13
2022-11-30T20:05:51.885Z,41.70
2022-11-30T20:08:19.164Z,43.10
2022-11-30T20:10:46.225Z,42.60
2022-11-30T20:13:13.369Z,40.63
2022-11-30T20:15:41.259Z,40.93
2022-11-30T20:18:09.532Z,41.70
2022-11-30T20:20:36.939Z,40.03
2022-11-30T20:23:04.046Z,41.33
2022-11-30T20:25:32.263Z,40.27
2022-11-30T20:27:59.987Z,40.73
2022-11-30T20:30:27.257Z,42.17
2022-11-30T20:32:54.128Z,41.30
2022-11-30T20:35:22.656Z,41.00
2022-11-30T20:37:49.534Z,39.77
2022-11-30T20:40:16.974Z,42.03
2022-11-30T20:42:43.874Z,40.50
2022-11-30T20:45:10.820Z,40.13
2022-11-30T20:47:37.789Z,39.87
2022-11-30T20:50:07.132Z,40.10
2022-11-30T20:52:35.691Z,40.57
2022-11-30T20:55:03.029Z,39.63
2022-11-30T20:57:30.007Z,40.20
2022-11-30T20:59:57.433Z,39.00
2022-11-30T21:02:24.359Z,38.10
2022-11-30T21:04:51.679Z,38.13
2022-11-30T21:07:18.865Z,40.17
2022-11-30T21:09:48.771Z,39.07
2022-11-30T21:12:15.717Z,37.67
2022-11-30T21:14:43.094Z,38.60
2022-11-30T21:17:09.948Z,39.33
2022-11-30T21:19:37.195Z,38.47
2022-11-30T21:22:05.203Z,37.53
2022-11-30T21:24:32.459Z,38.87
2022-11-30T21:27:00.786Z,37.70
2022-11-30T21:29:28.047Z,38.27
2022-11-30T21:31:54.949Z,37.63
2022-11-30T21:34:23.814Z,37.60
2022-11-30T21:36:52.013Z,40.03
2022-11-30T21:39:19.504Z,37.93
2022-11-30T21:41:46.547Z,38.50
2022-11-30T21:44:16.364Z,37.97
2022-11-30T21:46:45.561Z,37.87
2022-11-30T21:49:13.203Z,38.93
2022-11-30T21:51:42.446Z,39.00
2022-11-30T21:54:12.273Z,39.67
2022-11-30T21:56:40.054Z,38.07
2022-11-30T21:59:08.836Z,37.70
2022-11-30T22:01:38.978Z,38.93
2022-11-30T22:04:07.724Z,48.30
2022-11-30T22:06:36.931Z,40.40
2022-11-30T22:09:07.924Z,41.27
2022-11-30T22:11:37.096Z,40.57
2022-11-30T22:14:04.352Z,39.87
2022-11-30T22:16:35.932Z,39.33
2022-11-30T22:19:07.043Z,39.60
2022-11-30T22:21:34.740Z,38.97
2022-11-30T22:24:03.872Z,39.07
2022-11-30T22:26:32.196Z,39.37
2022-11-30T22:29:01.186Z,38.23
2022-11-30T22:31:32.094Z,39.40
2022-11-30T22:33:59.836Z,39.67
2022-11-30T22:36:30.643Z,38.00
2022-11-30T22:38:59.487Z,39.97
2022-11-30T22:41:27.350Z,39.53
2022-11-30T22:43:55.689Z,40.73
2022-11-30T22:46:24.609Z,41.37
2022-11-30T22:48:52.807Z,38.43
2022-11-30T22:51:21.474Z,41.00
2022-11-30T22:53:50.393Z,41.03
2022-11-30T22:56:19.069Z,39.87
2022-11-30T22:58:47.959Z,42.80
2022-11-30T23:01:16.532Z,42.33
2022-11-30T23:03:45.321Z,41.00
2022-11-30T23:06:13.290Z,40.50
2022-11-30T23:08:40.908Z,42.63
2022-11-30T23:11:11.791Z,42.80
2022-11-30T23:13:40.249Z,43.50
2022-11-30T23:16:08.290Z,40.70
2022-11-30T23:18:40.086Z,42.00
2022-11-30T23:21:08.804Z,43.77
2022-11-30T23:23:35.736Z,44.07
2022-11-30T23:26:11.383Z,44.03
2022-11-30T23:28:41.765Z,43.20
2022-11-30T23:31:09.889Z,45.50
2022-11-30T23:33:36.987Z,44.03
2022-11-30T23:36:05.378Z,43.00
2022-11-30T23:38:32.799Z,46.33
2022-11-30T23:41:03.732Z,47.67
2022-11-30T23:43:32.983Z,48.83
2022-11-30T23:46:00.406Z,51.27
2022-11-30T23:48:27.779Z,52.33
2022-11-30T23:50:55.749Z,54.17
2022-11-30T23:53:22.997Z,54.57
2022-11-30T23:55:50.781Z,53.53
2022-11-30T23:58:17.767Z,56.27
